sensor_id;sensor_type;location;lat;lon;timestamp;P1;P2;P0
82151;PMS5003;71721;47.904;-122.188;2023-07-31T00:01:36;8;8;
82151;PMS5003;71721;47.904;-122.188;2023-07-31T00:04:02;6;6;
82151;PMS5003;71721;47.904;-122.188;2023-07-31T00:06:27;6;6;
82151;PMS5003;71721;47.904;-122.188;2023-07-31T00:08:52;8;8;
82151;PMS5003;71721;47.904;-122.188;2023-07-31T00:11:18;8;8;
82151;PMS5003;71721;47.904;-122.188;2023-07-31T00:13:43;7;7;
82151;PMS5003;71721;47.904;-122.188;2023-07-31T00:16:08;8;8;
82151;PMS5003;71721;47.904;-122.188;2023-07-31T00:18:33;8;8;
82151;PMS5003;71721;47.904;-122.188;2023-07-31T00:20:58;7;7;
82151;PMS5003;71721;47.904;-122.188;2023-07-31T00:23:26;8;8;
82151;PMS5003;71721;47.904;-122.188;2023-07-31T00:25:50;7;7;
82151;PMS5003;71721;47.904;-122.188;2023-07-31T00:28:14;7;7;
82151;PMS5003;71721;47.904;-122.188;2023-07-31T00:30:40;9;7;
82151;PMS5003;71721;47.904;-122.188;2023-07-31T00:33:05;6;6;
82151;PMS5003;71721;47.904;-122.188;2023-07-31T00:35:30;7;7;
82151;PMS5003;71721;47.904;-122.188;2023-07-31T00:37:57;7;7;
82151;PMS5003;71721;47.904;-122.188;2023-07-31T00:40:21;8;7;
82151;PMS5003;71721;47.904;-122.188;2023-07-31T00:42:46;7;7;
82151;PMS5003;71721;47.904;-122.188;2023-07-31T00:45:11;9;8;
82151;PMS5003;71721;47.904;-122.188;2023-07-31T00:47:36;9;9;
82151;PMS5003;71721;47.904;-122.188;2023-07-31T00:50:02;7;7;
82151;PMS5003;71721;47.904;-122.188;2023-07-31T00:52:27;7;7;
82151;PMS5003;71721;47.904;-122.188;2023-07-31T00:54:52;9;8;
82151;PMS5003;71721;47.904;-122.188;2023-07-31T00:57:17;8;7;
82151;PMS5003;71721;47.904;-122.188;2023-07-31T00:59:42;6;6;
82151;PMS5003;71721;47.904;-122.188;2023-07-31T01:02:08;6;6;
82151;PMS5003;71721;47.904;-122.188;2023-07-31T01:04:34;9;8;
82151;PMS5003;71721;47.904;-122.188;2023-07-31T01:07:00;6;6;
82151;PMS5003;71721;47.904;-122.188;2023-07-31T01:09:28;7;6;
82151;PMS5003;71721;47.904;-122.188;2023-07-31T01:11:52;6;6;
82151;PMS5003;71721;47.904;-122.188;2023-07-31T01:14:14;11;11;
82151;PMS5003;71721;47.904;-122.188;2023-07-31T01:16:40;6;6;
82151;PMS5003;71721;47.904;-122.188;2023-07-31T01:19:06;8;8;
82151;PMS5003;71721;47.904;-122.188;2023-07-31T01:21:36;10;8;
82151;PMS5003;71721;47.904;-122.188;2023-07-31T01:24:05;8;8;
82151;PMS5003;71721;47.904;-122.188;2023-07-31T01:26:21;6;6;
82151;PMS5003;71721;47.904;-122.188;2023-07-31T01:28:49;9;9;
82151;PMS5003;71721;47.904;-122.188;2023-07-31T01:31:14;8;8;
82151;PMS5003;71721;47.904;-122.188;2023-07-31T01:33:36;8;8;
82151;PMS5003;71721;47.904;-122.188;2023-07-31T01:36:02;8;8;
82151;PMS5003;71721;47.904;-122.188;2023-07-31T01:38:27;9;9;
82151;PMS5003;71721;47.904;-122.188;2023-07-31T01:40:53;8;8;
82151;PMS5003;71721;47.904;-122.188;2023-07-31T01:43:17;7;7;
82151;PMS5003;71721;47.904;-122.188;2023-07-31T01:45:43;6;5;
82151;PMS5003;71721;47.904;-122.188;2023-07-31T01:48:08;6;6;
82151;PMS5003;71721;47.904;-122.188;2023-07-31T01:50:33;6;6;
82151;PMS5003;71721;47.904;-122.188;2023-07-31T01:52:58;7;6;
82151;PMS5003;71721;47.904;-122.188;2023-07-31T01:55:25;6;6;
82151;PMS5003;71721;47.904;-122.188;2023-07-31T01:57:49;8;7;
82151;PMS5003;71721;47.904;-122.188;2023-07-31T02:00:14;7;7;
82151;PMS5003;71721;47.904;-122.188;2023-07-31T02:02:40;6;6;
82151;PMS5003;71721;47.904;-122.188;2023-07-31T02:05:05;6;6;
82151;PMS5003;71721;47.904;-122.188;2023-07-31T02:07:30;6;6;
82151;PMS5003;71721;47.904;-122.188;2023-07-31T02:09:56;4;4;
82151;PMS5003;71721;47.904;-122.188;2023-07-31T02:12:21;4;4;
82151;PMS5003;71721;47.904;-122.188;2023-07-31T02:14:46;6;6;
82151;PMS5003;71721;47.904;-122.188;2023-07-31T02:17:12;5;5;
82151;PMS5003;71721;47.904;-122.188;2023-07-31T02:19:37;4;4;
82151;PMS5003;71721;47.904;-122.188;2023-07-31T02:22:02;4;4;
82151;PMS5003;71721;47.904;-122.188;2023-07-31T02:24:28;5;5;
82151;PMS5003;71721;47.904;-122.188;2023-07-31T02:26:54;6;6;
82151;PMS5003;71721;47.904;-122.188;2023-07-31T02:29:18;4;4;
82151;PMS5003;71721;47.904;-122.188;2023-07-31T02:31:44;5;5;
82151;PMS5003;71721;47.904;-122.188;2023-07-31T02:34:09;3;3;
82151;PMS5003;71721;47.904;-122.188;2023-07-31T02:36:34;3;3;
82151;PMS5003;71721;47.904;-122.188;2023-07-31T02:39:00;5;5;
82151;PMS5003;71721;47.904;-122.188;2023-07-31T02:41:25;4;4;
82151;PMS5003;71721;47.904;-122.188;2023-07-31T02:43:55;4;4;
82151;PMS5003;71721;47.904;-122.188;2023-07-31T02:46:16;2;2;
82151;PMS5003;71721;47.904;-122.188;2023-07-31T02:48:46;5;4;
82151;PMS5003;71721;47.904;-122.188;2023-07-31T02:51:06;4;4;
82151;PMS5003;71721;47.904;-122.188;2023-07-31T02:53:32;2;2;
82151;PMS5003;71721;47.904;-122.188;2023-07-31T02:55:57;4;4;
82151;PMS5003;71721;47.904;-122.188;2023-07-31T02:58:26;3;3;
82151;PMS5003;71721;47.904;-122.188;2023-07-31T03:00:48;4;3;
82151;PMS5003;71721;47.904;-122.188;2023-07-31T03:03:13;3;3;
82151;PMS5003;71721;47.904;-122.188;2023-07-31T03:05:39;3;3;
82151;PMS5003;71721;47.904;-122.188;2023-07-31T03:08:04;3;3;
82151;PMS5003;71721;47.904;-122.188;2023-07-31T03:10:29;5;5;
82151;PMS5003;71721;47.904;-122.188;2023-07-31T03:12:55;3;3;
82151;PMS5003;71721;47.904;-122.188;2023-07-31T03:15:20;3;3;
82151;PMS5003;71721;47.904;-122.188;2023-07-31T03:17:45;3;3;
82151;PMS5003;71721;47.904;-122.188;2023-07-31T03:20:11;3;3;
82151;PMS5003;71721;47.904;-122.188;2023-07-31T03:22:36;5;4;
82151;PMS5003;71721;47.904;-122.188;2023-07-31T03:25:02;3;3;
82151;PMS5003;71721;47.904;-122.188;2023-07-31T03:27:32;3;3;
82151;PMS5003;71721;47.904;-122.188;2023-07-31T03:29:53;3;3;
82151;PMS5003;71721;47.904;-122.188;2023-07-31T03:32:19;2;2;
82151;PMS5003;71721;47.904;-122.188;2023-07-31T03:34:43;1;1;
82151;PMS5003;71721;47.904;-122.188;2023-07-31T03:37:11;3;3;
82151;PMS5003;71721;47.904;-122.188;2023-07-31T03:39:34;4;3;
82151;PMS5003;71721;47.904;-122.188;2023-07-31T03:41:59;1;1;
82151;PMS5003;71721;47.904;-122.188;2023-07-31T03:44:25;3;3;
82151;PMS5003;71721;47.904;-122.188;2023-07-31T03:46:50;3;3;
82151;PMS5003;71721;47.904;-122.188;2023-07-31T03:49:16;3;3;
82151;PMS5003;71721;47.904;-122.188;2023-07-31T03:51:41;2;2;
82151;PMS5003;71721;47.904;-122.188;2023-07-31T03:54:06;3;3;
82151;PMS5003;71721;47.904;-122.188;2023-07-31T03:56:32;3;2;
82151;PMS5003;71721;47.904;-122.188;2023-07-31T03:58:58;2;2;
82151;PMS5003;71721;47.904;-122.188;2023-07-31T04:01:23;2;2;
82151;PMS5003;71721;47.904;-122.188;2023-07-31T04:03:48;1;1;
82151;PMS5003;71721;47.904;-122.188;2023-07-31T04:06:14;2;1;
82151;PMS5003;71721;47.904;-122.188;2023-07-31T04:08:39;3;3;
82151;PMS5003;71721;47.904;-122.188;2023-07-31T04:11:04;2;2;
82151;PMS5003;71721;47.904;-122.188;2023-07-31T04:13:30;2;2;
82151;PMS5003;71721;47.904;-122.188;2023-07-31T04:15:55;3;3;
82151;PMS5003;71721;47.904;-122.188;2023-07-31T04:18:21;1;1;
82151;PMS5003;71721;47.904;-122.188;2023-07-31T04:20:47;2;1;
82151;PMS5003;71721;47.904;-122.188;2023-07-31T04:23:12;4;4;
82151;PMS5003;71721;47.904;-122.188;2023-07-31T04:25:38;2;2;
82151;PMS5003;71721;47.904;-122.188;2023-07-31T04:28:02;5;4;
82151;PMS5003;71721;47.904;-122.188;2023-07-31T04:30:28;2;2;
82151;PMS5003;71721;47.904;-122.188;2023-07-31T04:32:53;2;2;
82151;PMS5003;71721;47.904;-122.188;2023-07-31T04:35:19;3;3;
82151;PMS5003;71721;47.904;-122.188;2023-07-31T04:37:44;3;3;
82151;PMS5003;71721;47.904;-122.188;2023-07-31T04:40:10;3;3;
82151;PMS5003;71721;47.904;-122.188;2023-07-31T04:42:35;3;3;
82151;PMS5003;71721;47.904;-122.188;2023-07-31T04:45:07;2;2;
82151;PMS5003;71721;47.904;-122.188;2023-07-31T04:47:26;3;3;
82151;PMS5003;71721;47.904;-122.188;2023-07-31T04:49:57;2;2;
82151;PMS5003;71721;47.904;-122.188;2023-07-31T04:52:17;6;5;
82151;PMS5003;71721;47.904;-122.188;2023-07-31T04:54:42;2;2;
82151;PMS5003;71721;47.904;-122.188;2023-07-31T04:57:11;3;3;
82151;PMS5003;71721;47.904;-122.188;2023-07-31T04:59:33;4;4;
82151;PMS5003;71721;47.904;-122.188;2023-07-31T05:01:59;6;6;
82151;PMS5003;71721;47.904;-122.188;2023-07-31T05:04:25;3;3;
82151;PMS5003;71721;47.904;-122.188;2023-07-31T05:06:49;5;4;
82151;PMS5003;71721;47.904;-122.188;2023-07-31T05:09:14;10;8;
82151;PMS5003;71721;47.904;-122.188;2023-07-31T05:11:40;7;7;
82151;PMS5003;71721;47.904;-122.188;2023-07-31T05:14:05;2;2;
82151;PMS5003;71721;47.904;-122.188;2023-07-31T05:16:31;2;2;
82151;PMS5003;71721;47.904;-122.188;2023-07-31T05:18:56;4;4;
82151;PMS5003;71721;47.904;-122.188;2023-07-31T05:21:21;4;4;
82151;PMS5003;71721;47.904;-122.188;2023-07-31T05:23:46;5;5;
82151;PMS5003;71721;47.904;-122.188;2023-07-31T05:26:12;4;4;
82151;PMS5003;71721;47.904;-122.188;2023-07-31T05:28:37;5;5;
82151;PMS5003;71721;47.904;-122.188;2023-07-31T05:31:03;3;3;
82151;PMS5003;71721;47.904;-122.188;2023-07-31T05:33:33;5;4;
82151;PMS5003;71721;47.904;-122.188;2023-07-31T05:35:54;2;2;
82151;PMS5003;71721;47.904;-122.188;2023-07-31T05:38:19;5;5;
82151;PMS5003;71721;47.904;-122.188;2023-07-31T05:40:44;4;4;
82151;PMS5003;71721;47.904;-122.188;2023-07-31T05:43:10;3;3;
82151;PMS5003;71721;47.904;-122.188;2023-07-31T05:45:35;2;1;
82151;PMS5003;71721;47.904;-122.188;2023-07-31T05:48:00;2;2;
82151;PMS5003;71721;47.904;-122.188;2023-07-31T05:50:26;3;3;
82151;PMS5003;71721;47.904;-122.188;2023-07-31T05:52:56;4;4;
82151;PMS5003;71721;47.904;-122.188;2023-07-31T05:55:17;2;2;
82151;PMS5003;71721;47.904;-122.188;2023-07-31T05:57:42;4;3;
82151;PMS5003;71721;47.904;-122.188;2023-07-31T06:00:09;3;3;
82151;PMS5003;71721;47.904;-122.188;2023-07-31T06:02:33;3;3;
82151;PMS5003;71721;47.904;-122.188;2023-07-31T06:04:58;4;4;
82151;PMS5003;71721;47.904;-122.188;2023-07-31T06:07:28;3;3;
82151;PMS5003;71721;47.904;-122.188;2023-07-31T06:09:49;4;4;
82151;PMS5003;71721;47.904;-122.188;2023-07-31T06:12:16;2;2;
82151;PMS5003;71721;47.904;-122.188;2023-07-31T06:14:40;2;2;
82151;PMS5003;71721;47.904;-122.188;2023-07-31T06:17:05;3;3;
82151;PMS5003;71721;47.904;-122.188;2023-07-31T06:19:30;1;1;
82151;PMS5003;71721;47.904;-122.188;2023-07-31T06:21:56;2;2;
82151;PMS5003;71721;47.904;-122.188;2023-07-31T06:24:21;3;3;
82151;PMS5003;71721;47.904;-122.188;2023-07-31T06:26:46;2;2;
82151;PMS5003;71721;47.904;-122.188;2023-07-31T06:29:12;2;2;
82151;PMS5003;71721;47.904;-122.188;2023-07-31T06:31:37;3;3;
82151;PMS5003;71721;47.904;-122.188;2023-07-31T06:34:03;2;2;
82151;PMS5003;71721;47.904;-122.188;2023-07-31T06:36:28;3;3;
82151;PMS5003;71721;47.904;-122.188;2023-07-31T06:38:54;1;1;
82151;PMS5003;71721;47.904;-122.188;2023-07-31T06:41:24;2;1;
82151;PMS5003;71721;47.904;-122.188;2023-07-31T06:43:44;2;2;
82151;PMS5003;71721;47.904;-122.188;2023-07-31T06:46:10;2;2;
82151;PMS5003;71721;47.904;-122.188;2023-07-31T06:48:35;3;3;
82151;PMS5003;71721;47.904;-122.188;2023-07-31T06:51:00;2;2;
82151;PMS5003;71721;47.904;-122.188;2023-07-31T06:53:26;3;3;
82151;PMS5003;71721;47.904;-122.188;2023-07-31T06:55:51;4;3;
82151;PMS5003;71721;47.904;-122.188;2023-07-31T06:58:17;1;1;
82151;PMS5003;71721;47.904;-122.188;2023-07-31T07:00:42;2;1;
82151;PMS5003;71721;47.904;-122.188;2023-07-31T07:03:07;3;3;
82151;PMS5003;71721;47.904;-122.188;2023-07-31T07:05:33;2;2;
82151;PMS5003;71721;47.904;-122.188;2023-07-31T07:07:58;4;4;
82151;PMS5003;71721;47.904;-122.188;2023-07-31T07:10:25;3;3;
82151;PMS5003;71721;47.904;-122.188;2023-07-31T07:12:49;3;3;
82151;PMS5003;71721;47.904;-122.188;2023-07-31T07:15:15;3;3;
82151;PMS5003;71721;47.904;-122.188;2023-07-31T07:17:40;4;2;
82151;PMS5003;71721;47.904;-122.188;2023-07-31T07:20:07;3;3;
82151;PMS5003;71721;47.904;-122.188;2023-07-31T07:22:31;2;2;
82151;PMS5003;71721;47.904;-122.188;2023-07-31T07:24:56;3;3;
82151;PMS5003;71721;47.904;-122.188;2023-07-31T07:27:22;3;3;
82151;PMS5003;71721;47.904;-122.188;2023-07-31T07:29:49;2;2;
82151;PMS5003;71721;47.904;-122.188;2023-07-31T07:32:12;3;3;
82151;PMS5003;71721;47.904;-122.188;2023-07-31T07:34:38;3;3;
82151;PMS5003;71721;47.904;-122.188;2023-07-31T07:37:03;5;4;
82151;PMS5003;71721;47.904;-122.188;2023-07-31T07:39:29;3;3;
82151;PMS5003;71721;47.904;-122.188;2023-07-31T07:41:54;2;2;
82151;PMS5003;71721;47.904;-122.188;2023-07-31T07:44:19;3;3;
82151;PMS5003;71721;47.904;-122.188;2023-07-31T07:46:45;4;3;
82151;PMS5003;71721;47.904;-122.188;2023-07-31T07:49:10;3;3;
82151;PMS5003;71721;47.904;-122.188;2023-07-31T07:51:36;2;2;
82151;PMS5003;71721;47.904;-122.188;2023-07-31T07:54:01;3;3;
82151;PMS5003;71721;47.904;-122.188;2023-07-31T07:56:27;4;3;
82151;PMS5003;71721;47.904;-122.188;2023-07-31T07:58:52;2;2;
82151;PMS5003;71721;47.904;-122.188;2023-07-31T08:01:18;3;3;
82151;PMS5003;71721;47.904;-122.188;2023-07-31T08:03:43;2;2;
82151;PMS5003;71721;47.904;-122.188;2023-07-31T08:06:08;3;3;
82151;PMS5003;71721;47.904;-122.188;2023-07-31T08:08:33;3;3;
82151;PMS5003;71721;47.904;-122.188;2023-07-31T08:10:59;4;3;
82151;PMS5003;71721;47.904;-122.188;2023-07-31T08:13:25;3;3;
82151;PMS5003;71721;47.904;-122.188;2023-07-31T08:15:50;3;2;
82151;PMS5003;71721;47.904;-122.188;2023-07-31T08:18:15;3;3;
82151;PMS5003;71721;47.904;-122.188;2023-07-31T08:20:41;4;4;
82151;PMS5003;71721;47.904;-122.188;2023-07-31T08:23:07;3;3;
82151;PMS5003;71721;47.904;-122.188;2023-07-31T08:25:34;5;5;
82151;PMS5003;71721;47.904;-122.188;2023-07-31T08:27:57;3;3;
82151;PMS5003;71721;47.904;-122.188;2023-07-31T08:30:22;3;3;
82151;PMS5003;71721;47.904;-122.188;2023-07-31T08:32:48;4;4;
82151;PMS5003;71721;47.904;-122.188;2023-07-31T08:35:14;4;3;
82151;PMS5003;71721;47.904;-122.188;2023-07-31T08:37:39;2;2;
82151;PMS5003;71721;47.904;-122.188;2023-07-31T08:40:05;2;2;
82151;PMS5003;71721;47.904;-122.188;2023-07-31T08:42:29;3;3;
82151;PMS5003;71721;47.904;-122.188;2023-07-31T08:44:55;3;3;
82151;PMS5003;71721;47.904;-122.188;2023-07-31T08:47:26;3;3;
82151;PMS5003;71721;47.904;-122.188;2023-07-31T08:49:46;3;3;
82151;PMS5003;71721;47.904;-122.188;2023-07-31T08:52:11;3;3;
82151;PMS5003;71721;47.904;-122.188;2023-07-31T08:54:37;2;2;
82151;PMS5003;71721;47.904;-122.188;2023-07-31T08:57:02;3;3;
82151;PMS5003;71721;47.904;-122.188;2023-07-31T08:59:28;3;3;
82151;PMS5003;71721;47.904;-122.188;2023-07-31T09:01:53;4;4;
82151;PMS5003;71721;47.904;-122.188;2023-07-31T09:04:19;4;4;
82151;PMS5003;71721;47.904;-122.188;2023-07-31T09:06:44;1;1;
82151;PMS5003;71721;47.904;-122.188;2023-07-31T09:09:09;4;4;
82151;PMS5003;71721;47.904;-122.188;2023-07-31T09:11:35;2;2;
82151;PMS5003;71721;47.904;-122.188;2023-07-31T09:14:00;4;4;
82151;PMS5003;71721;47.904;-122.188;2023-07-31T09:16:27;3;3;
82151;PMS5003;71721;47.904;-122.188;2023-07-31T09:18:55;3;3;
82151;PMS5003;71721;47.904;-122.188;2023-07-31T09:21:17;2;2;
82151;PMS5003;71721;47.904;-122.188;2023-07-31T09:23:42;3;3;
82151;PMS5003;71721;47.904;-122.188;2023-07-31T09:26:08;4;3;
82151;PMS5003;71721;47.904;-122.188;2023-07-31T09:28:33;3;3;
82151;PMS5003;71721;47.904;-122.188;2023-07-31T09:30:58;2;2;
82151;PMS5003;71721;47.904;-122.188;2023-07-31T09:33:24;3;3;
82151;PMS5003;71721;47.904;-122.188;2023-07-31T09:35:49;2;2;
82151;PMS5003;71721;47.904;-122.188;2023-07-31T09:38:15;4;4;
82151;PMS5003;71721;47.904;-122.188;2023-07-31T09:40:41;4;4;
82151;PMS5003;71721;47.904;-122.188;2023-07-31T09:43:06;4;3;
82151;PMS5003;71721;47.904;-122.188;2023-07-31T09:45:33;3;2;
82151;PMS5003;71721;47.904;-122.188;2023-07-31T09:48:02;4;4;
82151;PMS5003;71721;47.904;-122.188;2023-07-31T09:50:23;4;3;
82151;PMS5003;71721;47.904;-122.188;2023-07-31T09:52:47;3;3;
82151;PMS5003;71721;47.904;-122.188;2023-07-31T09:55:13;3;3;
82151;PMS5003;71721;47.904;-122.188;2023-07-31T09:57:40;4;4;
82151;PMS5003;71721;47.904;-122.188;2023-07-31T10:00:05;4;4;
82151;PMS5003;71721;47.904;-122.188;2023-07-31T10:02:29;2;2;
82151;PMS5003;71721;47.904;-122.188;2023-07-31T10:04:55;3;3;
82151;PMS5003;71721;47.904;-122.188;2023-07-31T10:07:20;3;3;
82151;PMS5003;71721;47.904;-122.188;2023-07-31T10:09:45;5;4;
82151;PMS5003;71721;47.904;-122.188;2023-07-31T10:12:11;4;4;
82151;PMS5003;71721;47.904;-122.188;2023-07-31T10:14:37;3;3;
82151;PMS5003;71721;47.904;-122.188;2023-07-31T10:17:03;3;3;
82151;PMS5003;71721;47.904;-122.188;2023-07-31T10:19:27;3;3;
82151;PMS5003;71721;47.904;-122.188;2023-07-31T10:21:53;5;5;
82151;PMS5003;71721;47.904;-122.188;2023-07-31T10:24:18;4;4;
82151;PMS5003;71721;47.904;-122.188;2023-07-31T10:26:44;4;4;
82151;PMS5003;71721;47.904;-122.188;2023-07-31T10:29:09;3;3;
82151;PMS5003;71721;47.904;-122.188;2023-07-31T10:31:35;3;3;
82151;PMS5003;71721;47.904;-122.188;2023-07-31T10:34:00;2;2;
82151;PMS5003;71721;47.904;-122.188;2023-07-31T10:36:25;5;5;
82151;PMS5003;71721;47.904;-122.188;2023-07-31T10:38:51;4;4;
82151;PMS5003;71721;47.904;-122.188;2023-07-31T10:41:16;5;3;
82151;PMS5003;71721;47.904;-122.188;2023-07-31T10:43:42;5;5;
82151;PMS5003;71721;47.904;-122.188;2023-07-31T10:46:08;4;4;
82151;PMS5003;71721;47.904;-122.188;2023-07-31T10:48:33;3;3;
82151;PMS5003;71721;47.904;-122.188;2023-07-31T10:50:58;5;5;
82151;PMS5003;71721;47.904;-122.188;2023-07-31T10:53:25;3;3;
82151;PMS5003;71721;47.904;-122.188;2023-07-31T10:55:50;4;4;
82151;PMS5003;71721;47.904;-122.188;2023-07-31T10:58:15;3;3;
82151;PMS5003;71721;47.904;-122.188;2023-07-31T11:00:41;4;4;
82151;PMS5003;71721;47.904;-122.188;2023-07-31T11:03:07;7;6;
82151;PMS5003;71721;47.904;-122.188;2023-07-31T11:05:50;4;4;
82151;PMS5003;71721;47.904;-122.188;2023-07-31T11:07:57;4;4;
82151;PMS5003;71721;47.904;-122.188;2023-07-31T11:10:23;5;4;
82151;PMS5003;71721;47.904;-122.188;2023-07-31T11:12:53;3;3;
82151;PMS5003;71721;47.904;-122.188;2023-07-31T11:15:13;4;4;
82151;PMS5003;71721;47.904;-122.188;2023-07-31T11:17:39;4;4;
82151;PMS5003;71721;47.904;-122.188;2023-07-31T11:20:05;4;4;
82151;PMS5003;71721;47.904;-122.188;2023-07-31T11:22:30;4;4;
82151;PMS5003;71721;47.904;-122.188;2023-07-31T11:24:55;4;4;
82151;PMS5003;71721;47.904;-122.188;2023-07-31T11:27:21;6;6;
82151;PMS5003;71721;47.904;-122.188;2023-07-31T11:29:46;5;4;
82151;PMS5003;71721;47.904;-122.188;2023-07-31T11:32:15;4;3;
82151;PMS5003;71721;47.904;-122.188;2023-07-31T11:34:50;5;5;
82151;PMS5003;71721;47.904;-122.188;2023-07-31T11:37:03;5;5;
82151;PMS5003;71721;47.904;-122.188;2023-07-31T11:39:28;6;6;
82151;PMS5003;71721;47.904;-122.188;2023-07-31T11:41:58;4;4;
82151;PMS5003;71721;47.904;-122.188;2023-07-31T11:44:20;7;5;
82151;PMS5003;71721;47.904;-122.188;2023-07-31T11:46:45;7;6;
82151;PMS5003;71721;47.904;-122.188;2023-07-31T11:49:10;7;6;
82151;PMS5003;71721;47.904;-122.188;2023-07-31T11:51:40;6;6;
82151;PMS5003;71721;47.904;-122.188;2023-07-31T11:54:07;6;6;
82151;PMS5003;71721;47.904;-122.188;2023-07-31T11:56:27;6;5;
82151;PMS5003;71721;47.904;-122.188;2023-07-31T11:58:53;5;5;
82151;PMS5003;71721;47.904;-122.188;2023-07-31T12:01:18;5;5;
82151;PMS5003;71721;47.904;-122.188;2023-07-31T12:03:43;5;5;
82151;PMS5003;71721;47.904;-122.188;2023-07-31T12:06:08;4;4;
82151;PMS5003;71721;47.904;-122.188;2023-07-31T12:08:34;5;4;
82151;PMS5003;71721;47.904;-122.188;2023-07-31T12:11:02;5;5;
82151;PMS5003;71721;47.904;-122.188;2023-07-31T12:13:26;6;6;
82151;PMS5003;71721;47.904;-122.188;2023-07-31T12:15:53;6;5;
82151;PMS5003;71721;47.904;-122.188;2023-07-31T12:18:19;4;4;
82151;PMS5003;71721;47.904;-122.188;2023-07-31T12:20:42;5;5;
82151;PMS5003;71721;47.904;-122.188;2023-07-31T12:23:07;4;4;
82151;PMS5003;71721;47.904;-122.188;2023-07-31T12:25:32;5;5;
82151;PMS5003;71721;47.904;-122.188;2023-07-31T12:27:58;6;6;
82151;PMS5003;71721;47.904;-122.188;2023-07-31T12:30:27;4;4;
82151;PMS5003;71721;47.904;-122.188;2023-07-31T12:32:49;4;4;
82151;PMS5003;71721;47.904;-122.188;2023-07-31T12:35:14;5;4;
82151;PMS5003;71721;47.904;-122.188;2023-07-31T12:37:40;5;5;
82151;PMS5003;71721;47.904;-122.188;2023-07-31T12:40:06;4;4;
82151;PMS5003;71721;47.904;-122.188;2023-07-31T12:42:30;4;4;
82151;PMS5003;71721;47.904;-122.188;2023-07-31T12:44:56;6;5;
82151;PMS5003;71721;47.904;-122.188;2023-07-31T12:47:22;7;7;
82151;PMS5003;71721;47.904;-122.188;2023-07-31T12:49:47;4;4;
82151;PMS5003;71721;47.904;-122.188;2023-07-31T12:52:13;6;6;
82151;PMS5003;71721;47.904;-122.188;2023-07-31T12:54:38;6;6;
82151;PMS5003;71721;47.904;-122.188;2023-07-31T12:57:04;7;6;
82151;PMS5003;71721;47.904;-122.188;2023-07-31T12:59:30;4;4;
82151;PMS5003;71721;47.904;-122.188;2023-07-31T13:01:55;5;5;
82151;PMS5003;71721;47.904;-122.188;2023-07-31T13:04:20;4;4;
82151;PMS5003;71721;47.904;-122.188;2023-07-31T13:06:46;5;5;
82151;PMS5003;71721;47.904;-122.188;2023-07-31T13:09:11;5;5;
82151;PMS5003;71721;47.904;-122.188;2023-07-31T13:11:36;6;5;
82151;PMS5003;71721;47.904;-122.188;2023-07-31T13:14:02;7;6;
82151;PMS5003;71721;47.904;-122.188;2023-07-31T13:16:28;5;5;
82151;PMS5003;71721;47.904;-122.188;2023-07-31T13:18:58;4;4;
82151;PMS5003;71721;47.904;-122.188;2023-07-31T13:21:18;4;4;
82151;PMS5003;71721;47.904;-122.188;2023-07-31T13:23:44;6;6;
82151;PMS5003;71721;47.904;-122.188;2023-07-31T13:26:09;5;5;
82151;PMS5003;71721;47.904;-122.188;2023-07-31T13:28:35;4;4;
82151;PMS5003;71721;47.904;-122.188;2023-07-31T13:31:01;5;5;
82151;PMS5003;71721;47.904;-122.188;2023-07-31T13:33:26;6;5;
82151;PMS5003;71721;47.904;-122.188;2023-07-31T13:35:51;5;5;
82151;PMS5003;71721;47.904;-122.188;2023-07-31T13:38:17;4;4;
82151;PMS5003;71721;47.904;-122.188;2023-07-31T13:40:42;6;6;
82151;PMS5003;71721;47.904;-122.188;2023-07-31T13:43:13;5;5;
82151;PMS5003;71721;47.904;-122.188;2023-07-31T13:45:33;5;5;
82151;PMS5003;71721;47.904;-122.188;2023-07-31T13:47:59;5;5;
82151;PMS5003;71721;47.904;-122.188;2023-07-31T13:50:25;4;4;
82151;PMS5003;71721;47.904;-122.188;2023-07-31T13:52:50;6;5;
82151;PMS5003;71721;47.904;-122.188;2023-07-31T13:55:15;4;4;
82151;PMS5003;71721;47.904;-122.188;2023-07-31T13:57:41;5;5;
82151;PMS5003;71721;47.904;-122.188;2023-07-31T14:00:07;5;5;
82151;PMS5003;71721;47.904;-122.188;2023-07-31T14:02:32;5;5;
82151;PMS5003;71721;47.904;-122.188;2023-07-31T14:05:02;6;6;
82151;PMS5003;71721;47.904;-122.188;2023-07-31T14:07:23;5;5;
82151;PMS5003;71721;47.904;-122.188;2023-07-31T14:09:48;6;6;
82151;PMS5003;71721;47.904;-122.188;2023-07-31T14:12:14;2;2;
82151;PMS5003;71721;47.904;-122.188;2023-07-31T14:14:40;4;4;
82151;PMS5003;71721;47.904;-122.188;2023-07-31T14:17:06;5;5;
82151;PMS5003;71721;47.904;-122.188;2023-07-31T14:19:30;6;6;
82151;PMS5003;71721;47.904;-122.188;2023-07-31T14:21:58;4;4;
82151;PMS5003;71721;47.904;-122.188;2023-07-31T14:24:21;5;5;
82151;PMS5003;71721;47.904;-122.188;2023-07-31T14:26:47;5;5;
82151;PMS5003;71721;47.904;-122.188;2023-07-31T14:29:13;6;6;
82151;PMS5003;71721;47.904;-122.188;2023-07-31T14:31:38;6;6;
82151;PMS5003;71721;47.904;-122.188;2023-07-31T14:34:03;7;7;
82151;PMS5003;71721;47.904;-122.188;2023-07-31T14:36:29;5;5;
82151;PMS5003;71721;47.904;-122.188;2023-07-31T14:38:55;4;4;
82151;PMS5003;71721;47.904;-122.188;2023-07-31T14:41:20;4;4;
82151;PMS5003;71721;47.904;-122.188;2023-07-31T14:43:45;6;6;
82151;PMS5003;71721;47.904;-122.188;2023-07-31T14:46:11;5;5;
82151;PMS5003;71721;47.904;-122.188;2023-07-31T14:48:36;5;5;
82151;PMS5003;71721;47.904;-122.188;2023-07-31T14:51:02;6;6;
82151;PMS5003;71721;47.904;-122.188;2023-07-31T14:53:27;6;6;
82151;PMS5003;71721;47.904;-122.188;2023-07-31T14:55:53;6;6;
82151;PMS5003;71721;47.904;-122.188;2023-07-31T14:58:18;5;4;
82151;PMS5003;71721;47.904;-122.188;2023-07-31T15:00:44;5;4;
82151;PMS5003;71721;47.904;-122.188;2023-07-31T15:03:10;5;5;
82151;PMS5003;71721;47.904;-122.188;2023-07-31T15:05:35;4;4;
82151;PMS5003;71721;47.904;-122.188;2023-07-31T15:08:00;5;5;
82151;PMS5003;71721;47.904;-122.188;2023-07-31T15:10:26;6;6;
82151;PMS5003;71721;47.904;-122.188;2023-07-31T15:12:51;5;5;
82151;PMS5003;71721;47.904;-122.188;2023-07-31T15:15:17;6;6;
82151;PMS5003;71721;47.904;-122.188;2023-07-31T15:17:42;8;7;
82151;PMS5003;71721;47.904;-122.188;2023-07-31T15:20:18;6;6;
82151;PMS5003;71721;47.904;-122.188;2023-07-31T15:22:33;5;5;
82151;PMS5003;71721;47.904;-122.188;2023-07-31T15:24:58;5;5;
82151;PMS5003;71721;47.904;-122.188;2023-07-31T15:27:25;4;4;
82151;PMS5003;71721;47.904;-122.188;2023-07-31T15:29:50;3;3;
82151;PMS5003;71721;47.904;-122.188;2023-07-31T15:32:16;6;5;
82151;PMS5003;71721;47.904;-122.188;2023-07-31T15:34:40;5;5;
82151;PMS5003;71721;47.904;-122.188;2023-07-31T15:37:06;4;4;
82151;PMS5003;71721;47.904;-122.188;2023-07-31T15:39:31;5;5;
82151;PMS5003;71721;47.904;-122.188;2023-07-31T15:41:57;5;5;
82151;PMS5003;71721;47.904;-122.188;2023-07-31T15:44:22;5;5;
82151;PMS5003;71721;47.904;-122.188;2023-07-31T15:46:48;4;4;
82151;PMS5003;71721;47.904;-122.188;2023-07-31T15:49:28;5;4;